Time;durP1;ratioP1;P1;durP2;ratioP2;P2;SDS_P1;SDS_P2;PMS_P1;PMS_P2;Temp;Humidity;BMP_temperature;BMP_pressure;BME280_temperature;BME280_humidity;BME280_pressure;Samples;Min_cycle;Max_cycle;Signal;HPM_P1;HPM_P2
2022/09/12 00:00:50;;;;;;;10.00;5.40;;;;;;;;;;4894635;29;20331;-43
2022/09/12 00:03:16;;;;;;;7.30;5.27;;;;;;;;;;4896331;29;20415;-43
2022/09/12 00:05:46;;;;;;;7.70;4.97;;;;;;;;;;4896549;29;20176;-43
2022/09/12 00:08:13;;;;;;;5.90;4.70;;;;;;;;;;4893196;29;20511;-43
2022/09/12 00:10:44;;;;;;;6.03;4.77;;;;;;;;;;4899229;29;20177;-43
2022/09/12 00:13:10;;;;;;;7.53;4.50;;;;;;;;;;4898558;29;20188;-43
2022/09/12 00:15:40;;;;;;;7.23;4.20;;;;;;;;;;4894036;29;20408;-43
2022/09/12 00:18:07;;;;;;;5.50;3.70;;;;;;;;;;4896784;29;20271;-44
2022/09/12 00:20:34;;;;;;;4.77;3.47;;;;;;;;;;4897930;29;20612;-43
2022/09/12 00:23:00;;;;;;;7.63;4.23;;;;;;;;;;4894271;29;21793;-43
2022/09/12 00:25:29;;;;;;;4.83;4.00;;;;;;;;;;4888182;29;20205;-43
2022/09/12 00:27:55;;;;;;;4.93;3.80;;;;;;;;;;4896382;29;20191;-43
2022/09/12 00:30:21;;;;;;;5.73;4.30;;;;;;;;;;4896785;29;20623;-43
2022/09/12 00:32:49;;;;;;;5.37;3.80;;;;;;;;;;4898713;29;20625;-43
2022/09/12 00:35:15;;;;;;;5.33;3.60;;;;;;;;;;4892763;29;20291;-43
2022/09/12 00:37:41;;;;;;;4.80;3.53;;;;;;;;;;4893660;28;20176;-42
2022/09/12 00:40:07;;;;;;;5.10;3.43;;;;;;;;;;4899852;29;20494;-43
2022/09/12 00:42:33;;;;;;;6.60;3.60;;;;;;;;;;4893168;29;20184;-43
2022/09/12 00:44:59;;;;;;;5.53;3.70;;;;;;;;;;4892954;29;20183;-43
2022/09/12 00:47:30;;;;;;;6.27;4.30;;;;;;;;;;4893090;29;20923;-43
2022/09/12 00:49:59;;;;;;;4.17;3.47;;;;;;;;;;4887162;29;20704;-43
2022/09/12 00:52:25;;;;;;;5.97;3.77;;;;;;;;;;4894099;29;20199;-43
2022/09/12 00:54:54;;;;;;;4.57;3.60;;;;;;;;;;4891480;29;20243;-43
2022/09/12 00:57:22;;;;;;;5.57;3.50;;;;;;;;;;4887335;28;20212;-43
2022/09/12 00:59:59;;;;;;;6.20;3.87;;;;;;;;;;4892920;29;20275;-42
2022/09/12 01:02:25;;;;;;;4.47;3.70;;;;;;;;;;4896030;28;20424;-42
2022/09/12 01:04:52;;;;;;;10.23;4.47;;;;;;;;;;4896195;29;20192;-43
2022/09/12 01:07:19;;;;;;;4.83;3.70;;;;;;;;;;4894442;29;20751;-43
2022/09/12 01:09:45;;;;;;;4.73;3.83;;;;;;;;;;4891429;29;20951;-43
2022/09/12 01:12:13;;;;;;;8.13;4.23;;;;;;;;;;4896896;28;20996;-43
2022/09/12 01:14:39;;;;;;;8.50;4.80;;;;;;;;;;4895540;29;20187;-43
2022/09/12 01:17:05;;;;;;;6.57;4.43;;;;;;;;;;4906079;28;20173;-43
2022/09/12 01:19:50;;;;;;;8.37;5.20;;;;;;;;;;4897154;29;20176;-43
2022/09/12 01:22:35;;;;;;;10.20;6.20;;;;;;;;;;4894303;29;20214;-43
2022/09/12 01:25:08;;;;;;;10.10;5.63;;;;;;;;;;4899771;28;20203;-43
2022/09/12 01:27:43;;;;;;;8.27;6.50;;;;;;;;;;4900995;29;20188;-43
2022/09/12 01:30:30;;;;;;;10.70;7.37;;;;;;;;;;4897903;29;20194;-43
2022/09/12 01:33:00;;;;;;;12.57;8.47;;;;;;;;;;4896791;29;20168;-43
2022/09/12 01:35:35;;;;;;;10.30;7.90;;;;;;;;;;4896165;29;20181;-43
2022/09/12 01:38:01;;;;;;;12.57;9.53;;;;;;;;;;4897727;28;20187;-43
2022/09/12 01:40:45;;;;;;;13.50;10.00;;;;;;;;;;4897505;29;20176;-43
2022/09/12 01:43:17;;;;;;;15.13;10.97;;;;;;;;;;4898934;29;20168;-43
2022/09/12 01:45:46;;;;;;;15.33;11.40;;;;;;;;;;4895334;29;20171;-43
2022/09/12 01:48:12;;;;;;;13.90;9.03;;;;;;;;;;4898764;29;20191;-42
2022/09/12 01:50:43;;;;;;;12.70;10.63;;;;;;;;;;4898276;29;20207;-42
2022/09/12 01:53:15;;;;;;;13.13;10.30;;;;;;;;;;4897369;29;20172;-43
2022/09/12 01:55:43;;;;;;;13.77;10.43;;;;;;;;;;4895024;29;20180;-43
2022/09/12 01:58:15;;;;;;;16.40;12.17;;;;;;;;;;4898880;29;20171;-43
2022/09/12 02:00:47;;;;;;;15.27;11.40;;;;;;;;;;4899148;29;20172;-43
2022/09/12 02:03:23;;;;;;;13.70;10.47;;;;;;;;;;4899177;29;20263;-43
2022/09/12 02:05:57;;;;;;;16.20;12.03;;;;;;;;;;4901738;29;20176;-43
2022/09/12 02:08:26;;;;;;;14.20;11.30;;;;;;;;;;4899843;29;21298;-43
2022/09/12 02:10:52;;;;;;;13.67;10.70;;;;;;;;;;4901446;29;20208;-42
2022/09/12 02:13:23;;;;;;;13.50;10.90;;;;;;;;;;4898268;29;20199;-43
2022/09/12 02:15:51;;;;;;;13.83;10.80;;;;;;;;;;4898383;29;20188;-44
2022/09/12 02:18:18;;;;;;;14.57;9.93;;;;;;;;;;4901578;29;20291;-43
2022/09/12 02:20:45;;;;;;;13.33;10.80;;;;;;;;;;4902153;29;20279;-43
2022/09/12 02:23:19;;;;;;;11.13;8.20;;;;;;;;;;4902430;29;20887;-43
2022/09/12 02:25:46;;;;;;;14.63;8.47;;;;;;;;;;4900066;29;20203;-43
2022/09/12 02:28:18;;;;;;;10.57;9.13;;;;;;;;;;4900992;29;20179;-43
2022/09/12 02:31:04;;;;;;;16.83;11.13;;;;;;;;;;4904456;29;20177;-43
2022/09/12 02:33:36;;;;;;;18.67;14.53;;;;;;;;;;4918523;28;20188;-44
2022/09/12 02:36:13;;;;;;;16.03;12.93;;;;;;;;;;4902238;29;20176;-43
2022/09/12 02:38:46;;;;;;;13.73;10.47;;;;;;;;;;4904076;29;20186;-43
2022/09/12 02:41:14;;;;;;;18.20;13.40;;;;;;;;;;4903704;29;20251;-43
2022/09/12 02:43:40;;;;;;;17.20;13.17;;;;;;;;;;4899738;29;20175;-43
2022/09/12 02:46:08;;;;;;;13.90;11.00;;;;;;;;;;4898827;29;20250;-43
2022/09/12 02:48:36;;;;;;;12.07;10.20;;;;;;;;;;4900453;29;20217;-43
2022/09/12 02:51:03;;;;;;;14.97;12.10;;;;;;;;;;4904014;29;20179;-42
2022/09/12 02:53:29;;;;;;;13.10;11.27;;;;;;;;;;4902524;29;20616;-42
2022/09/12 02:55:55;;;;;;;15.03;10.60;;;;;;;;;;4897349;29;20168;-43
2022/09/12 02:58:23;;;;;;;14.60;10.53;;;;;;;;;;4889352;29;20260;-43
2022/09/12 03:00:49;;;;;;;13.10;9.60;;;;;;;;;;4898314;29;21886;-42
2022/09/12 03:03:34;;;;;;;12.00;9.57;;;;;;;;;;4900642;29;20187;-43
2022/09/12 03:06:02;;;;;;;13.47;11.73;;;;;;;;;;4893519;29;20176;-43
2022/09/12 03:08:36;;;;;;;15.93;12.93;;;;;;;;;;4898123;29;20557;-41
2022/09/12 03:11:25;;;;;;;13.23;11.10;;;;;;;;;;4899275;29;20277;-43
2022/09/12 03:13:51;;;;;;;15.07;13.10;;;;;;;;;;4902727;29;20172;-44
2022/09/12 03:16:28;;;;;;;13.33;11.57;;;;;;;;;;4900066;29;20355;-43
2022/09/12 03:18:54;;;;;;;18.20;12.33;;;;;;;;;;4899944;29;20175;-43
2022/09/12 03:21:27;;;;;;;20.70;12.90;;;;;;;;;;4898176;29;20184;-43
2022/09/12 03:24:04;;;;;;;14.33;12.20;;;;;;;;;;4896794;29;20222;-44
2022/09/12 03:26:34;;;;;;;13.97;11.83;;;;;;;;;;4897664;29;20207;-43
2022/09/12 03:29:01;;;;;;;14.37;12.10;;;;;;;;;;4902888;29;20192;-43
2022/09/12 03:31:27;;;;;;;15.47;12.27;;;;;;;;;;4899875;29;20169;-43
2022/09/12 03:33:54;;;;;;;18.43;13.10;;;;;;;;;;4899448;29;20204;-43
2022/09/12 03:36:24;;;;;;;16.23;12.50;;;;;;;;;;4900530;29;20845;-43
2022/09/12 03:38:50;;;;;;;14.87;11.67;;;;;;;;;;4898354;29;20184;-43
2022/09/12 03:41:17;;;;;;;13.33;10.83;;;;;;;;;;4896264;28;20202;-42
2022/09/12 03:43:43;;;;;;;19.90;13.73;;;;;;;;;;4898321;29;20250;-44
2022/09/12 03:46:09;;;;;;;16.63;13.23;;;;;;;;;;4897048;29;21054;-44
2022/09/12 03:48:35;;;;;;;12.90;11.30;;;;;;;;;;4899403;29;20331;-44
2022/09/12 03:51:02;;;;;;;14.03;11.87;;;;;;;;;;4900252;29;20173;-44
2022/09/12 03:53:28;;;;;;;16.00;13.70;;;;;;;;;;4900684;29;20177;-44
2022/09/12 03:55:54;;;;;;;19.33;14.33;;;;;;;;;;4898347;29;20177;-44
2022/09/12 03:58:20;;;;;;;17.77;15.00;;;;;;;;;;4898295;29;20184;-44
2022/09/12 04:00:46;;;;;;;15.93;14.17;;;;;;;;;;4898162;28;20587;-44
2022/09/12 04:03:12;;;;;;;18.90;14.37;;;;;;;;;;4896519;29;20176;-43
2022/09/12 04:05:39;;;;;;;23.07;16.43;;;;;;;;;;4892724;29;20462;-44
2022/09/12 04:08:05;;;;;;;25.53;17.80;;;;;;;;;;4894912;29;20712;-43
2022/09/12 04:10:31;;;;;;;35.93;19.67;;;;;;;;;;4891806;29;20176;-43
2022/09/12 04:12:57;;;;;;;28.80;17.47;;;;;;;;;;4893364;29;20235;-44
2022/09/12 04:15:23;;;;;;;38.87;19.53;;;;;;;;;;4891619;29;20184;-43
2022/09/12 04:17:49;;;;;;;28.60;17.50;;;;;;;;;;4891540;29;20179;-44
2022/09/12 04:20:16;;;;;;;21.93;14.60;;;;;;;;;;4895981;29;20753;-44
2022/09/12 04:22:42;;;;;;;18.90;13.87;;;;;;;;;;4896354;29;20291;-44
2022/09/12 04:25:08;;;;;;;17.87;12.53;;;;;;;;;;4894786;29;20406;-43
2022/09/12 04:27:34;;;;;;;17.50;12.53;;;;;;;;;;4895434;29;20267;-44
2022/09/12 04:30:01;;;;;;;19.13;13.20;;;;;;;;;;4896885;29;20720;-44
2022/09/12 04:32:29;;;;;;;16.50;12.73;;;;;;;;;;4894150;29;20168;-44
2022/09/12 04:34:55;;;;;;;19.70;13.73;;;;;;;;;;4890606;29;20351;-43
2022/09/12 04:37:22;;;;;;;17.70;12.60;;;;;;;;;;4898726;29;20188;-43
2022/09/12 04:39:48;;;;;;;15.80;11.67;;;;;;;;;;4898836;29;20187;-44
2022/09/12 04:42:15;;;;;;;18.10;12.10;;;;;;;;;;4898698;29;20199;-43
2022/09/12 04:44:41;;;;;;;18.77;12.13;;;;;;;;;;4893715;29;20482;-44
2022/09/12 04:47:07;;;;;;;19.73;15.30;;;;;;;;;;4897049;29;20561;-44
2022/09/12 04:49:33;;;;;;;25.27;15.67;;;;;;;;;;4889559;29;20526;-44
2022/09/12 04:52:00;;;;;;;24.23;16.07;;;;;;;;;;4891220;29;20181;-44
2022/09/12 04:54:26;;;;;;;20.17;14.10;;;;;;;;;;4886375;29;20711;-43
2022/09/12 04:56:53;;;;;;;22.90;17.57;;;;;;;;;;4897304;29;20688;-44
2022/09/12 04:59:20;;;;;;;22.13;15.97;;;;;;;;;;4897386;29;20476;-44
2022/09/12 05:01:47;;;;;;;19.50;15.83;;;;;;;;;;4895751;29;20207;-44
2022/09/12 05:04:13;;;;;;;23.77;18.37;;;;;;;;;;4894767;29;20575;-44
2022/09/12 05:06:40;;;;;;;19.83;17.17;;;;;;;;;;4892161;29;20199;-44
2022/09/12 05:09:07;;;;;;;22.20;16.27;;;;;;;;;;4894060;29;20535;-44
2022/09/12 05:11:35;;;;;;;21.77;16.40;;;;;;;;;;4892059;29;20587;-44
2022/09/12 05:14:01;;;;;;;22.57;15.93;;;;;;;;;;4893345;29;20176;-44
2022/09/12 05:16:28;;;;;;;23.07;15.10;;;;;;;;;;4889666;29;20179;-44
2022/09/12 05:18:58;;;;;;;20.63;16.23;;;;;;;;;;4896986;29;20303;-44
2022/09/12 05:21:25;;;;;;;23.83;16.67;;;;;;;;;;4897359;29;20524;-43
2022/09/12 05:23:52;;;;;;;19.63;14.47;;;;;;;;;;4890550;29;20299;-44
2022/09/12 05:26:19;;;;;;;19.90;15.73;;;;;;;;;;4897989;29;20200;-44
2022/09/12 05:28:46;;;;;;;19.77;14.87;;;;;;;;;;4897092;29;20294;-44
2022/09/12 05:31:16;;;;;;;21.53;15.03;;;;;;;;;;4893134;29;20242;-44
2022/09/12 05:33:44;;;;;;;22.13;16.47;;;;;;;;;;4896740;28;20168;-44
2022/09/12 05:36:17;;;;;;;23.63;15.83;;;;;;;;;;4892093;29;20219;-44
2022/09/12 05:38:44;;;;;;;21.70;14.57;;;;;;;;;;4906740;29;20228;-43
2022/09/12 05:41:11;;;;;;;23.87;15.00;;;;;;;;;;4901102;29;20383;-44
2022/09/12 05:43:38;;;;;;;21.30;15.83;;;;;;;;;;4899230;29;20308;-42
2022/09/12 05:46:07;;;;;;;20.23;15.20;;;;;;;;;;4895280;29;20494;-44
2022/09/12 05:48:34;;;;;;;15.93;13.13;;;;;;;;;;4896982;29;20905;-44
2022/09/12 05:51:08;;;;;;;18.23;13.97;;;;;;;;;;4901585;29;20202;-44
2022/09/12 05:53:34;;;;;;;22.00;15.40;;;;;;;;;;4893251;29;20191;-44
2022/09/12 05:56:05;;;;;;;21.40;15.47;;;;;;;;;;4896441;29;20191;-44
2022/09/12 05:58:31;;;;;;;20.90;16.47;;;;;;;;;;4898257;29;20179;-44
2022/09/12 06:01:01;;;;;;;25.03;17.10;;;;;;;;;;4897043;29;20582;-44
2022/09/12 06:03:27;;;;;;;22.67;17.23;;;;;;;;;;4900605;29;20259;-44
2022/09/12 06:05:54;;;;;;;21.40;16.87;;;;;;;;;;4894788;29;20184;-43
2022/09/12 06:08:20;;;;;;;26.67;17.03;;;;;;;;;;4902548;29;20752;-43
2022/09/12 06:10:46;;;;;;;19.27;15.43;;;;;;;;;;4900326;29;20554;-44
2022/09/12 06:13:12;;;;;;;18.33;14.83;;;;;;;;;;4896403;29;20184;-44
2022/09/12 06:15:38;;;;;;;20.40;15.27;;;;;;;;;;4897737;29;20739;-44
2022/09/12 06:18:04;;;;;;;29.37;16.67;;;;;;;;;;4905092;29;20180;-44
2022/09/12 06:20:30;;;;;;;22.60;15.53;;;;;;;;;;4903738;29;20191;-44
2022/09/12 06:22:57;;;;;;;23.00;15.40;;;;;;;;;;4902096;29;20186;-44
2022/09/12 06:25:23;;;;;;;21.97;15.43;;;;;;;;;;4902338;29;20721;-44
2022/09/12 06:27:50;;;;;;;20.80;16.30;;;;;;;;;;4904893;29;20187;-44
2022/09/12 06:30:16;;;;;;;21.43;15.00;;;;;;;;;;4897620;29;22050;-42
2022/09/12 06:32:42;;;;;;;20.90;15.57;;;;;;;;;;4901518;28;20172;-44
2022/09/12 06:35:08;;;;;;;20.97;14.77;;;;;;;;;;4897123;28;20443;-42
2022/09/12 06:37:36;;;;;;;20.53;14.67;;;;;;;;;;4902840;29;20538;-44
2022/09/12 06:40:02;;;;;;;26.90;14.57;;;;;;;;;;4898879;29;20411;-44
2022/09/12 06:42:28;;;;;;;17.17;12.10;;;;;;;;;;4893825;29;20190;-44
2022/09/12 06:44:54;;;;;;;16.40;11.63;;;;;;;;;;4897398;29;20192;-44
2022/09/12 06:47:20;;;;;;;14.60;10.77;;;;;;;;;;4914441;28;20196;-44
2022/09/12 06:49:46;;;;;;;17.07;10.90;;;;;;;;;;4897342;29;20726;-42
2022/09/12 06:52:12;;;;;;;16.93;12.17;;;;;;;;;;4897030;28;20239;-44
2022/09/12 06:54:38;;;;;;;19.90;12.67;;;;;;;;;;4889561;29;20196;-44
2022/09/12 06:57:04;;;;;;;23.00;13.33;;;;;;;;;;4891549;29;20176;-44
2022/09/12 06:59:30;;;;;;;16.17;12.57;;;;;;;;;;4897852;29;20269;-43
2022/09/12 07:01:56;;;;;;;16.47;11.20;;;;;;;;;;4888839;29;20657;-44
2022/09/12 07:04:22;;;;;;;16.97;11.83;;;;;;;;;;4890967;29;20324;-44
2022/09/12 07:06:49;;;;;;;18.30;11.90;;;;;;;;;;4894862;29;20191;-43
2022/09/12 07:09:17;;;;;;;27.90;11.20;;;;;;;;;;4898301;29;20709;-44
2022/09/12 07:11:44;;;;;;;15.90;8.00;;;;;;;;;;4892765;29;20372;-44
2022/09/12 07:14:12;;;;;;;11.10;7.73;;;;;;;;;;4891189;29;20204;-44
2022/09/12 07:16:38;;;;;;;9.70;6.60;;;;;;;;;;4898161;29;20207;-44
2022/09/12 07:19:06;;;;;;;10.20;7.53;;;;;;;;;;4897562;28;20188;-44
2022/09/12 07:21:35;;;;;;;11.07;8.07;;;;;;;;;;4904627;28;20183;-44
2022/09/12 07:24:01;;;;;;;13.23;7.20;;;;;;;;;;4889511;29;20207;-43
2022/09/12 07:26:28;;;;;;;11.40;7.50;;;;;;;;;;4887173;29;20915;-44
2022/09/12 07:28:55;;;;;;;8.47;6.43;;;;;;;;;;4888962;29;20997;-44
2022/09/12 07:31:22;;;;;;;12.00;6.97;;;;;;;;;;4887636;29;20181;-44
2022/09/12 07:33:49;;;;;;;8.70;6.07;;;;;;;;;;4888221;29;20188;-44
2022/09/12 07:36:16;;;;;;;12.10;6.83;;;;;;;;;;4889199;29;20184;-44
2022/09/12 07:38:42;;;;;;;9.53;5.70;;;;;;;;;;4887557;29;20196;-44
2022/09/12 07:41:22;;;;;;;10.70;6.80;;;;;;;;;;4888506;29;20181;-44
2022/09/12 07:43:51;;;;;;;11.90;6.40;;;;;;;;;;4888523;29;20196;-44
2022/09/12 07:46:17;;;;;;;10.33;6.10;;;;;;;;;;4892586;28;21067;-44
2022/09/12 07:48:44;;;;;;;9.17;6.23;;;;;;;;;;4892288;29;20208;-44
2022/09/12 07:51:11;;;;;;;10.10;5.87;;;;;;;;;;4890844;29;20248;-44
2022/09/12 07:53:38;;;;;;;10.30;5.60;;;;;;;;;;4890299;29;20172;-44
2022/09/12 07:56:05;;;;;;;13.27;7.20;;;;;;;;;;4889689;29;20218;-44
2022/09/12 07:58:32;;;;;;;9.77;5.93;;;;;;;;;;4892611;29;20181;-44
2022/09/12 08:01:04;;;;;;;11.90;6.87;;;;;;;;;;4891522;29;20180;-44
2022/09/12 08:03:30;;;;;;;12.17;6.20;;;;;;;;;;4889286;29;20184;-44
2022/09/12 08:06:19;;;;;;;10.23;6.63;;;;;;;;;;4888135;29;21040;-44
2022/09/12 08:08:45;;;;;;;11.20;5.93;;;;;;;;;;4889979;28;20243;-44
2022/09/12 08:11:12;;;;;;;10.97;5.50;;;;;;;;;;4886739;29;20188;-44
2022/09/12 08:13:39;;;;;;;11.43;5.87;;;;;;;;;;4887808;29;20185;-45
2022/09/12 08:16:06;;;;;;;9.63;5.80;;;;;;;;;;4888330;29;20327;-45
2022/09/12 08:18:32;;;;;;;6.53;5.30;;;;;;;;;;4888889;29;20185;-44
2022/09/12 08:20:59;;;;;;;6.50;4.97;;;;;;;;;;4891277;29;20201;-45
2022/09/12 08:23:27;;;;;;;7.73;5.40;;;;;;;;;;4889145;29;20180;-42
2022/09/12 08:26:03;;;;;;;7.90;4.40;;;;;;;;;;4891611;29;20606;-42
2022/09/12 08:28:31;;;;;;;10.33;5.37;;;;;;;;;;4885931;29;20780;-42
2022/09/12 08:31:00;;;;;;;6.80;4.40;;;;;;;;;;4882837;29;20669;-43
2022/09/12 08:33:31;;;;;;;8.57;5.20;;;;;;;;;;4885031;29;20587;-42
2022/09/12 08:36:09;;;;;;;10.67;5.30;;;;;;;;;;4888834;29;21003;-43
2022/09/12 08:38:36;;;;;;;14.17;5.13;;;;;;;;;;4887065;29;20311;-43
2022/09/12 08:41:05;;;;;;;9.67;4.90;;;;;;;;;;4885590;29;20890;-43
2022/09/12 08:43:31;;;;;;;7.47;4.70;;;;;;;;;;4885388;28;20948;-43
2022/09/12 08:46:06;;;;;;;5.77;5.17;;;;;;;;;;4885849;29;20300;-44
2022/09/12 08:48:32;;;;;;;6.90;4.73;;;;;;;;;;4886696;28;20315;-43
2022/09/12 08:50:59;;;;;;;9.67;5.13;;;;;;;;;;4887723;29;20741;-43
2022/09/12 08:53:27;;;;;;;5.67;3.97;;;;;;;;;;4887863;29;20633;-44
2022/09/12 08:55:57;;;;;;;7.33;4.10;;;;;;;;;;4881062;29;20179;-44
2022/09/12 08:58:24;;;;;;;5.30;3.40;;;;;;;;;;4884123;29;21262;-43
2022/09/12 09:00:56;;;;;;;7.63;4.20;;;;;;;;;;4889596;29;20184;-44
2022/09/12 09:03:43;;;;;;;9.00;6.70;;;;;;;;;;4892190;28;20209;-44
2022/09/12 09:06:12;;;;;;;14.80;6.50;;;;;;;;;;4895458;29;20261;-44
2022/09/12 09:08:41;;;;;;;10.47;6.67;;;;;;;;;;4897813;29;20189;-44
2022/09/12 09:11:07;;;;;;;10.60;6.43;;;;;;;;;;4891354;28;21253;-44
2022/09/12 09:16:33;;;;;;;9.33;4.67;;;;;;;;;;4898435;29;20259;-44
2022/09/12 09:19:02;;;;;;;9.47;5.37;;;;;;;;;;4895727;29;20442;-44
2022/09/12 09:21:34;;;;;;;8.97;5.40;;;;;;;;;;4895077;29;20199;-43
2022/09/12 09:24:05;;;;;;;7.97;4.13;;;;;;;;;;4895725;29;20574;-44
2022/09/12 09:26:31;;;;;;;6.40;3.90;;;;;;;;;;4898373;29;20248;-44
2022/09/12 09:29:18;;;;;;;7.33;3.70;;;;;;;;;;4898057;29;20207;-43
2022/09/12 09:31:47;;;;;;;5.03;2.63;;;;;;;;;;4892120;29;20511;-44
2022/09/12 09:34:23;;;;;;;4.63;2.50;;;;;;;;;;4895149;29;20203;-44
2022/09/12 09:36:51;;;;;;;5.57;2.93;;;;;;;;;;4894366;29;20260;-44
2022/09/12 09:39:21;;;;;;;5.03;2.40;;;;;;;;;;4893172;29;20429;-44
2022/09/12 09:41:47;;;;;;;7.60;2.90;;;;;;;;;;4891468;29;20180;-43
2022/09/12 09:44:13;;;;;;;5.07;3.20;;;;;;;;;;4895125;28;20230;-43
2022/09/12 09:46:39;;;;;;;8.63;3.50;;;;;;;;;;4896948;29;20531;-43
2022/09/12 09:49:06;;;;;;;4.87;2.93;;;;;;;;;;4899123;29;20199;-43
2022/09/12 09:51:36;;;;;;;3.97;2.57;;;;;;;;;;4894631;29;20212;-43
2022/09/12 09:54:05;;;;;;;5.00;2.27;;;;;;;;;;4895770;29;20243;-43
2022/09/12 09:56:41;;;;;;;6.27;3.10;;;;;;;;;;4896065;29;20638;-44
2022/09/12 09:59:18;;;;;;;7.23;3.43;;;;;;;;;;4898857;29;20807;-43
2022/09/12 10:01:49;;;;;;;4.87;2.83;;;;;;;;;;4897243;29;20646;-43
2022/09/12 10:04:19;;;;;;;6.60;2.80;;;;;;;;;;4905529;28;20191;-43
2022/09/12 10:06:46;;;;;;;6.50;3.30;;;;;;;;;;4895757;29;20201;-43
2022/09/12 10:09:12;;;;;;;5.97;3.43;;;;;;;;;;4887187;29;20201;-44
2022/09/12 10:11:38;;;;;;;7.43;2.80;;;;;;;;;;4886956;29;20718;-43
2022/09/12 10:14:05;;;;;;;7.00;2.97;;;;;;;;;;4888936;29;20263;-43
2022/09/12 10:16:47;;;;;;;4.77;2.50;;;;;;;;;;4885535;29;20192;-43
2022/09/12 10:19:23;;;;;;;5.93;2.57;;;;;;;;;;4888363;29;20622;-43
2022/09/12 10:21:53;;;;;;;6.20;2.93;;;;;;;;;;4895256;29;20740;-43
2022/09/12 10:24:40;;;;;;;5.67;2.27;;;;;;;;;;4900534;29;20511;-43
2022/09/12 10:27:13;;;;;;;6.03;2.60;;;;;;;;;;4900398;29;20200;-43
2022/09/12 10:29:44;;;;;;;6.47;2.87;;;;;;;;;;4898767;29;20606;-43
2022/09/12 10:32:12;;;;;;;4.87;2.70;;;;;;;;;;4897199;29;20590;-43
2022/09/12 10:34:43;;;;;;;3.63;2.50;;;;;;;;;;4901361;29;20506;-43
2022/09/12 10:37:15;;;;;;;4.50;3.00;;;;;;;;;;4899940;29;20183;-43
2022/09/12 10:39:41;;;;;;;6.10;2.77;;;;;;;;;;4896164;29;20363;-42
2022/09/12 10:42:13;;;;;;;6.30;3.33;;;;;;;;;;4896272;29;20188;-42
2022/09/12 10:44:51;;;;;;;4.97;3.57;;;;;;;;;;4899884;29;20201;-43
2022/09/12 10:47:23;;;;;;;6.47;3.20;;;;;;;;;;4900261;29;20184;-43
2022/09/12 10:49:49;;;;;;;6.03;3.00;;;;;;;;;;4897778;29;20215;-43
2022/09/12 10:52:17;;;;;;;8.40;3.20;;;;;;;;;;4895724;29;20790;-43
2022/09/12 10:54:43;;;;;;;7.50;3.57;;;;;;;;;;4888144;29;20776;-43
2022/09/12 10:57:28;;;;;;;5.50;3.07;;;;;;;;;;4891556;29;20532;-43
2022/09/12 11:00:13;;;;;;;5.30;2.93;;;;;;;;;;4884673;29;20506;-43
2022/09/12 11:02:48;;;;;;;4.97;2.50;;;;;;;;;;4886054;28;20185;-44
2022/09/12 11:05:19;;;;;;;3.37;2.40;;;;;;;;;;4897178;28;20282;-43
2022/09/12 11:07:46;;;;;;;4.30;2.40;;;;;;;;;;4889085;29;20215;-42
2022/09/12 11:10:22;;;;;;;8.90;2.80;;;;;;;;;;4897913;29;20204;-43
2022/09/12 11:12:59;;;;;;;5.60;2.50;;;;;;;;;;4897776;29;20687;-43
2022/09/12 11:15:40;;;;;;;4.43;2.77;;;;;;;;;;4901356;29;20656;-43
2022/09/12 11:18:17;;;;;;;5.70;2.70;;;;;;;;;;4898590;29;20203;-43
2022/09/12 11:20:47;;;;;;;5.50;2.70;;;;;;;;;;4898409;29;20269;-44
2022/09/12 11:23:31;;;;;;;6.83;4.00;;;;;;;;;;4901708;29;20842;-43
2022/09/12 11:25:57;;;;;;;6.63;3.83;;;;;;;;;;4899217;29;20999;-46
2022/09/12 11:28:23;;;;;;;5.90;3.27;;;;;;;;;;4897251;28;20554;-44
2022/09/12 11:30:55;;;;;;;5.40;2.67;;;;;;;;;;4897449;29;20896;-43
2022/09/12 11:33:21;;;;;;;5.17;3.07;;;;;;;;;;4911698;28;20675;-42
2022/09/12 11:35:56;;;;;;;8.10;2.80;;;;;;;;;;4894738;29;20181;-45
2022/09/12 11:38:23;;;;;;;5.53;3.10;;;;;;;;;;4898491;29;20188;-45
2022/09/12 11:40:54;;;;;;;7.80;3.13;;;;;;;;;;4904421;28;21107;-44
2022/09/12 11:43:42;;;;;;;4.40;2.37;;;;;;;;;;4906171;28;20904;-44
2022/09/12 11:46:21;;;;;;;3.80;2.10;;;;;;;;;;4892656;29;20299;-44
2022/09/12 11:48:50;;;;;;;4.87;2.20;;;;;;;;;;4893098;29;20304;-47
2022/09/12 11:51:18;;;;;;;4.63;2.30;;;;;;;;;;4890820;29;20969;-45
2022/09/12 11:53:46;;;;;;;4.07;2.10;;;;;;;;;;4894991;28;20192;-43
2022/09/12 11:56:15;;;;;;;5.10;2.70;;;;;;;;;;4898742;29;20191;-44
2022/09/12 11:58:43;;;;;;;4.17;2.43;;;;;;;;;;4896532;29;20185;-44
2022/09/12 12:01:29;;;;;;;3.93;2.00;;;;;;;;;;4887829;29;20189;-43
2022/09/12 12:03:56;;;;;;;6.90;2.30;;;;;;;;;;4882394;29;21513;-43
2022/09/12 12:06:31;;;;;;;3.90;2.30;;;;;;;;;;4897628;28;20791;-43
2022/09/12 12:08:57;;;;;;;4.57;2.13;;;;;;;;;;4889054;29;20204;-44
2022/09/12 12:11:29;;;;;;;6.30;2.33;;;;;;;;;;4889498;29;20942;-44
2022/09/12 12:13:58;;;;;;;2.73;1.87;;;;;;;;;;4908062;28;20522;-43
2022/09/12 12:16:30;;;;;;;3.70;1.90;;;;;;;;;;4893101;28;20173;-43
2022/09/12 12:19:06;;;;;;;4.60;1.70;;;;;;;;;;4886486;29;20181;-43
2022/09/12 12:21:35;;;;;;;3.43;2.00;;;;;;;;;;4886552;29;20187;-42
2022/09/12 12:24:21;;;;;;;4.20;2.00;;;;;;;;;;4888768;29;20271;-43
2022/09/12 12:27:02;;;;;;;2.60;1.90;;;;;;;;;;4892988;29;20648;-44
2022/09/12 12:29:31;;;;;;;2.47;1.50;;;;;;;;;;4887818;29;20203;-43
2022/09/12 12:32:03;;;;;;;1.90;1.70;;;;;;;;;;4883151;29;20204;-43
2022/09/12 12:34:46;;;;;;;2.53;1.50;;;;;;;;;;4885516;29;20760;-43
2022/09/12 12:37:21;;;;;;;2.20;1.40;;;;;;;;;;4887650;29;20189;-43
2022/09/12 12:39:48;;;;;;;2.77;1.40;;;;;;;;;;4897962;29;20184;-43
2022/09/12 12:42:33;;;;;;;2.40;1.20;;;;;;;;;;4895766;29;20184;-43
2022/09/12 12:44:59;;;;;;;1.77;1.40;;;;;;;;;;4894784;29;20183;-43
2022/09/12 12:47:27;;;;;;;3.83;1.47;;;;;;;;;;4893994;28;20223;-43
2022/09/12 12:50:00;;;;;;;2.83;1.33;;;;;;;;;;4899379;29;20223;-43
2022/09/12 12:52:27;;;;;;;2.47;1.50;;;;;;;;;;4896742;29;20206;-43
2022/09/12 12:54:55;;;;;;;2.77;1.40;;;;;;;;;;4894447;29;21063;-43
2022/09/12 12:57:21;;;;;;;4.93;1.87;;;;;;;;;;4885105;29;20741;-43
2022/09/12 13:00:08;;;;;;;5.33;2.03;;;;;;;;;;4884209;29;20180;-43
2022/09/12 13:02:36;;;;;;;5.53;1.97;;;;;;;;;;4887258;29;20669;-43
2022/09/12 13:05:05;;;;;;;3.20;1.80;;;;;;;;;;4882394;29;20558;-43
2022/09/12 13:07:36;;;;;;;2.80;1.40;;;;;;;;;;4884971;29;20195;-43
2022/09/12 13:10:03;;;;;;;3.63;1.67;;;;;;;;;;4886521;29;20554;-43
2022/09/12 13:12:56;;;;;;;2.83;1.70;;;;;;;;;;4885702;29;20180;-43
2022/09/12 13:15:46;;;;;;;5.90;1.60;;;;;;;;;;4886164;28;20357;-44
2022/09/12 13:18:14;;;;;;;2.20;1.50;;;;;;;;;;4885168;29;20436;-43
2022/09/12 13:20:47;;;;;;;3.17;1.80;;;;;;;;;;4887908;29;21008;-43
2022/09/12 13:23:21;;;;;;;2.87;1.60;;;;;;;;;;4886593;29;21083;-44
2022/09/12 13:25:52;;;;;;;6.93;1.80;;;;;;;;;;4888993;29;20746;-43
2022/09/12 13:28:18;;;;;;;7.23;2.17;;;;;;;;;;4888383;29;20919;-43
2022/09/12 13:31:07;;;;;;;35.80;4.53;;;;;;;;;;4887566;29;20196;-43
2022/09/12 13:33:33;;;;;;;7.07;2.03;;;;;;;;;;4886631;29;20904;-44
2022/09/12 13:36:08;;;;;;;2.73;1.70;;;;;;;;;;4890179;29;20586;-44
2022/09/12 13:38:47;;;;;;;7.70;1.40;;;;;;;;;;4894973;29;20184;-44
2022/09/12 13:41:21;;;;;;;3.50;1.20;;;;;;;;;;4893147;29;20176;-43
2022/09/12 13:43:48;;;;;;;3.73;1.50;;;;;;;;;;4890560;29;20811;-43
2022/09/12 13:46:16;;;;;;;4.47;1.63;;;;;;;;;;4886851;29;20645;-43
2022/09/12 13:48:42;;;;;;;2.53;1.40;;;;;;;;;;4886650;29;20685;-44
2022/09/12 13:51:18;;;;;;;3.20;1.50;;;;;;;;;;4884924;29;20184;-43
2022/09/12 13:53:46;;;;;;;2.13;1.30;;;;;;;;;;4884029;28;20185;-43
2022/09/12 13:56:19;;;;;;;3.40;1.40;;;;;;;;;;4883195;29;20494;-43
2022/09/12 13:59:12;;;;;;;3.57;1.60;;;;;;;;;;4889326;29;20184;-44
2022/09/12 14:01:45;;;;;;;3.17;1.30;;;;;;;;;;4897211;28;20239;-43
2022/09/12 14:07:12;;;;;;;6.37;1.67;;;;;;;;;;4901520;29;21089;-44
2022/09/12 14:09:40;;;;;;;1.73;1.10;;;;;;;;;;4902168;29;20624;-43
2022/09/12 14:12:24;;;;;;;4.87;1.60;;;;;;;;;;4904187;29;20176;-44
2022/09/12 14:14:51;;;;;;;2.63;1.20;;;;;;;;;;4898534;29;20188;-43
2022/09/12 14:17:23;;;;;;;4.87;1.50;;;;;;;;;;4902261;29;20180;-44
2022/09/12 14:19:49;;;;;;;2.97;1.47;;;;;;;;;;4902778;29;20188;-43
2022/09/12 14:22:19;;;;;;;3.00;1.50;;;;;;;;;;4900292;28;20733;-43
2022/09/12 14:24:51;;;;;;;2.53;1.37;;;;;;;;;;4894413;29;20223;-43
2022/09/12 14:27:19;;;;;;;3.47;1.50;;;;;;;;;;4894739;29;20625;-43
2022/09/12 14:29:46;;;;;;;5.30;1.87;;;;;;;;;;4891272;29;20300;-43
2022/09/12 14:32:21;;;;;;;3.97;1.47;;;;;;;;;;4893204;29;20469;-44
2022/09/12 14:35:06;;;;;;;1.63;1.33;;;;;;;;;;4896364;29;20549;-43
2022/09/12 14:37:32;;;;;;;5.07;1.30;;;;;;;;;;4896256;29;20541;-43
2022/09/12 14:39:58;;;;;;;2.53;1.27;;;;;;;;;;4900990;29;20311;-43
2022/09/12 14:42:27;;;;;;;1.87;1.30;;;;;;;;;;4904574;28;20192;-43
2022/09/12 14:44:57;;;;;;;1.90;1.30;;;;;;;;;;4903282;28;20183;-43
2022/09/12 14:47:24;;;;;;;3.63;1.30;;;;;;;;;;4901823;29;20196;-43
2022/09/12 14:49:51;;;;;;;3.07;1.10;;;;;;;;;;4902521;29;20191;-43
2022/09/12 14:52:33;;;;;;;5.60;1.50;;;;;;;;;;4901581;29;20184;-43